Airfield :
LOGIN :

Register | Disclaimer

   EN    FR    IT 

 










Legend :    VFR   Marginal VFR   IFR   Intensive IFR   Very Intensive IFR
Visi :
Ceiling :
>= 8 km
>= 3000ft
5 to 8 km
1000 to 3000 ft
1500m to 5 km
500 to 1000 ft
800 to 1500m
200 to 500 ft
< 800m
< 200 ft
Symbols :   Thunderstorms  Fog  Heavy snow  Heavy precipitations  Wind > 20 kt
SIGMETs :     Misc.  Thunderstorms  Icing  Turbulence  Mountain Waves  Volcanic Ashes







- Airport Elevation : 622 ft
- IATA code : BRS
- Download approach charts


EGGD - Bristol Int.

CURRENT METAR :
  • 161550Z AUTO 26009KT 9999 SCT008 BKN013 BKN020 18/16 Q1022

EXPIRED METARs :
  • 161520Z AUTO 26009KT 9999 BKN009 19/16 Q1022
  • 161450Z AUTO 27009KT 9999 BKN010 OVC016 18/15 Q1022
  • 161420Z AUTO 26010KT 9999 BKN009 BKN013 OVC018 19/16 Q1022
  • 161350Z AUTO 27010KT 9999 BKN009 OVC017 18/15 Q1022
  • 161320Z AUTO 27009KT 9999 BKN008 OVC017 18/16 Q1022

TAF AMD TAF EGGD
Valid from the 16 at 14:00 until the 17 at 12:00 UTC


161445Z 1614/1712 26010KT 9999 SCT015
PROB40
TEMPO 1614/1619 5000 -DZ BR BKN008
BECMG 1616/1619 04008KT
ATIS : +44 1275 473 666
No reported NOTAMs for that airfield.



MET'MAP, your aeronautical weather chart ! - Copyright ORBIFLY December 2007 - Disclaimer

ORBIFLY MET'MAP TEAM :

Programming & Development : Alexandra Zaïnal
Concept & Development : Baudouin d'Aumeries
Co-Development & Prog : Marc-Olivier Méhu
Technical & hardware support : Manuel Goepfert

Contact : metmap@orbifly.com




SOURCES & CREDITS :

   NOAA